Etusivu
METAR-TAF:

METAR-TAF

Lentoasemat :

Sainte-Marie, Madagaskar

Leveyspiiri: 17-05S, Pituuspiiri: 049-49E, korkeus merenpinnasta: 2 m

Tämänhetkinen sää

Tämä raportti tehtiin 11 tuntia ja 39 minuuttia sitten, kello 06.00 UTC
Tuuli 10 kn etelästä/kaakosta
Lämpötila 23°C
Kosteus 83%
Ilmanpaine 1022 hPa
Näkyvyys 10 km tai enemmän
Muutamia pilviä 1700 ft:n korkeudessa
Hajonneita pilviä 4000 ft:n korkeudessa
sadekuuroja näköpiirissä,

METAR: FMMS 140600Z 15010KT 9999 VCSH FEW017 BKN040 23/20 Q1022

Aika: 20:39 (17:39 UTC)


TAF: puuttuu

Säähavainnot ja -ennusteet yli 4000 lentoasemalta (METAR- ja TAF-raportit).

Käytössä olevat sääasemat on merkitty karttaan keltaisilla ja punaisilla pisteillä.

Aseta hiiri pisteen päälle nähdäksesi sääaseman nimen.

Klikkaa sitten nähdäksesi säähavainnot ja -ennusteet.

Kartan vaihtaminen: klikkaa mustalla rastilla varustettuja vihreitä pisteitä, niin voit zoomata sisään; viivalla varustettua vihreää pistettä, niin voit zoomata ulos tai vihreitä nuolia, niin pääset viereisille kartoille.


METAR-TAF: